Time,TemperatureF,DewpointF,PressureIn,WindDirection,WindDirectionDegrees,WindSpeedMPH,WindSpeedGustMPH,Humidity,HourlyPrecipIn,Conditions,Clouds,dailyrainin,SolarRadiationWatts/m^2,SoftwareType,DateUTC
2013-03-12 00:00:00,43.2,41.4,30.12,ESE,102,0.0,4.0,93,0.00,,,0.00,0.0,meteohub,2013-03-12 04:00:00,
2013-03-12 00:02:00,43.2,41.4,30.12,ESE,102,0.0,4.0,93,0.00,,,0.00,0.0,meteohub,2013-03-12 04:02:00,
2013-03-12 00:04:00,43.2,41.4,30.12,ESE,102,0.0,4.0,93,0.00,,,0.00,0.0,meteohub,2013-03-12 04:04:00,
2013-03-12 00:09:00,42.8,41.0,30.12,ESE,105,0.0,1.0,93,0.00,,,0.00,0.0,meteohub,2013-03-12 04:09:00,
2013-03-12 00:14:00,42.6,40.8,30.12,ESE,105,0.0,2.0,93,0.00,,,0.00,0.0,meteohub,2013-03-12 04:14:00,
2013-03-12 00:20:00,42.6,40.8,30.13,South,169,1.0,2.0,93,0.00,,,0.00,0.0,meteohub,2013-03-12 04:20:00,
2013-03-12 00:25:00,43.2,41.5,30.12,SSE,149,0.0,5.0,94,0.00,,,0.00,0.0,meteohub,2013-03-12 04:25:00,
2013-03-12 00:30:00,43.0,41.4,30.12,SE,146,2.0,5.0,94,0.00,,,0.00,0.0,meteohub,2013-03-12 04:30:00,
2013-03-12 00:35:00,43.2,41.5,30.12,SE,146,1.0,5.0,94,0.00,,,0.00,0.0,meteohub,2013-03-12 04:35:00,
2013-03-12 00:40:00,43.5,41.9,30.12,SE,140,1.0,5.0,94,0.00,,,0.00,0.0,meteohub,2013-03-12 04:40:00,
2013-03-12 00:45:00,43.9,42.3,30.12,SE,139,0.0,5.0,94,0.00,,,0.00,0.0,meteohub,2013-03-12 04:45:00,
2013-03-12 00:50:00,43.9,42.3,30.11,SE,139,0.0,5.0,94,0.00,,,0.00,0.0,meteohub,2013-03-12 04:50:00,
2013-03-12 00:55:00,44.1,42.4,30.11,SE,145,1.0,5.0,94,0.00,,,0.00,0.0,meteohub,2013-03-12 04:55:00,
2013-03-12 01:00:00,44.2,42.6,30.11,SSE,157,4.0,7.0,94,0.00,,,0.00,0.0,meteohub,2013-03-12 05:00:00,
2013-03-12 01:05:00,44.6,43.0,30.11,SSE,163,4.0,7.0,94,0.00,,,0.00,0.0,meteohub,2013-03-12 05:05:00,
2013-03-12 01:11:00,45.0,43.3,30.11,SE,144,2.0,7.0,94,0.00,,,0.00,0.0,meteohub,2013-03-12 05:11:00,
2013-03-12 01:16:00,45.1,43.5,30.11,SE,138,8.0,8.0,94,0.00,,,0.00,0.0,meteohub,2013-03-12 05:16:00,
2013-03-12 01:21:00,45.1,43.5,30.10,SE,144,0.0,8.0,94,0.00,,,0.00,0.0,meteohub,2013-03-12 05:21:00,
2013-03-12 01:26:00,45.1,43.5,30.10,SE,140,2.0,8.0,94,0.00,,,0.00,0.0,meteohub,2013-03-12 05:26:00,
2013-03-12 01:31:00,45.1,43.5,30.10,SSE,163,2.0,8.0,94,0.00,,,0.00,0.0,meteohub,2013-03-12 05:31:00,
2013-03-12 01:36:00,45.1,43.5,30.10,SE,141,2.0,9.0,94,0.00,,,0.00,0.0,meteohub,2013-03-12 05:36:00,
2013-03-12 01:41:00,45.1,43.5,30.10,SE,142,4.0,9.0,94,0.00,,,0.00,0.0,meteohub,2013-03-12 05:41:00,
2013-03-12 01:46:00,45.1,43.5,30.09,South,171,5.0,8.0,94,0.00,,,0.00,0.0,meteohub,2013-03-12 05:46:00,
2013-03-12 01:51:00,45.1,43.5,30.09,SSE,163,5.0,8.0,94,0.00,,,0.00,0.0,meteohub,2013-03-12 05:51:00,
2013-03-12 01:56:00,45.1,43.5,30.09,SSE,167,5.0,8.0,94,0.00,,,0.00,0.0,meteohub,2013-03-12 05:56:00,
2013-03-12 02:01:00,45.1,43.5,30.09,SSE,167,4.0,8.0,94,0.00,,,0.00,0.0,meteohub,2013-03-12 06:01:00,
2013-03-12 02:07:00,45.1,43.5,30.09,ESE,113,2.0,8.0,94,0.00,,,0.00,0.0,meteohub,2013-03-12 06:07:00,
2013-03-12 02:12:00,45.1,43.5,30.09,SE,140,0.0,7.0,94,0.00,,,0.00,0.0,meteohub,2013-03-12 06:12:00,
2013-03-12 02:17:00,45.1,43.5,30.08,SSE,150,4.0,7.0,94,0.00,,,0.00,0.0,meteohub,2013-03-12 06:17:00,
2013-03-12 02:22:00,45.3,43.7,30.07,SE,145,2.0,6.0,94,0.00,,,0.00,0.0,meteohub,2013-03-12 06:22:00,
2013-03-12 02:27:00,45.1,43.5,30.06,SE,141,1.0,6.0,94,0.00,,,0.00,0.0,meteohub,2013-03-12 06:27:00,
2013-03-12 02:32:00,45.1,43.5,30.06,SSE,150,5.0,6.0,94,0.00,,,0.00,0.0,meteohub,2013-03-12 06:32:00,
2013-03-12 02:37:00,45.1,43.5,30.05,SE,144,6.0,9.0,94,0.00,,,0.00,0.0,meteohub,2013-03-12 06:37:00,
2013-03-12 02:42:00,45.1,43.5,30.05,South,185,3.0,9.0,94,0.00,,,0.00,0.0,meteohub,2013-03-12 06:42:00,
2013-03-12 02:47:00,45.1,43.5,30.04,South,181,3.0,9.0,94,0.00,,,0.00,0.0,meteohub,2013-03-12 06:47:00,
2013-03-12 02:53:00,45.3,43.7,30.04,South,169,2.0,11.0,94,0.00,,,0.00,0.0,meteohub,2013-03-12 06:53:00,
2013-03-12 02:58:00,45.3,43.7,30.05,South,179,7.0,11.0,94,0.00,,,0.00,0.0,meteohub,2013-03-12 06:58:00,
2013-03-12 03:03:00,45.9,44.2,30.05,SSE,153,4.0,11.0,94,0.00,,,0.00,0.0,meteohub,2013-03-12 07:03:00,
2013-03-12 03:08:00,46.4,44.8,30.04,South,175,2.0,10.0,94,0.00,,,0.00,0.0,meteohub,2013-03-12 07:08:00,
2013-03-12 03:13:00,46.8,45.1,30.04,SSE,155,5.0,9.0,94,0.00,,,0.00,0.0,meteohub,2013-03-12 07:13:00,
2013-03-12 03:18:00,46.9,45.3,30.04,South,169,7.0,9.0,94,0.00,,,0.00,0.0,meteohub,2013-03-12 07:18:00,
2013-03-12 03:23:00,47.1,45.5,30.04,South,189,5.0,9.0,94,0.00,,,0.00,0.0,meteohub,2013-03-12 07:23:00,
2013-03-12 03:28:00,47.5,45.9,30.03,SSE,157,4.0,9.0,94,0.00,,,0.00,0.0,meteohub,2013-03-12 07:28:00,
2013-03-12 03:33:00,47.5,45.5,30.03,SSE,151,2.0,9.0,93,0.00,,,0.00,0.0,meteohub,2013-03-12 07:33:00,
2013-03-12 03:38:00,47.5,45.5,30.02,SSE,166,6.0,9.0,93,0.00,,,0.00,0.0,meteohub,2013-03-12 07:38:00,
2013-03-12 03:43:00,47.3,45.3,30.02,South,176,7.0,11.0,93,0.00,,,0.00,0.0,meteohub,2013-03-12 07:43:00,
2013-03-12 03:48:00,47.5,45.5,30.02,SE,146,4.0,11.0,93,0.00,,,0.00,0.0,meteohub,2013-03-12 07:48:00,
2013-03-12 03:53:00,47.5,45.5,30.02,South,184,3.0,11.0,93,0.00,,,0.00,0.0,meteohub,2013-03-12 07:53:00,
2013-03-12 03:58:00,47.8,46.2,30.02,South,173,1.0,10.0,94,0.00,,,0.00,0.0,meteohub,2013-03-12 07:58:00,
2013-03-12 04:04:00,47.8,45.9,30.02,South,183,5.0,13.0,93,0.00,,,0.00,0.0,meteohub,2013-03-12 08:04:00,
2013-03-12 04:09:00,48.0,46.0,30.03,SSE,162,2.0,13.0,93,0.00,,,0.00,0.0,meteohub,2013-03-12 08:09:00,
2013-03-12 04:14:00,48.2,46.2,30.03,SSW,205,7.0,13.0,93,0.00,,,0.00,0.0,meteohub,2013-03-12 08:14:00,
2013-03-12 04:19:00,48.4,46.4,30.02,South,191,5.0,14.0,93,0.00,,,0.00,0.0,meteohub,2013-03-12 08:19:00,
2013-03-12 04:24:00,48.4,46.2,30.02,SSE,159,10.0,14.0,92,0.00,,,0.00,0.0,meteohub,2013-03-12 08:24:00,
2013-03-12 04:29:00,48.0,45.9,30.03,SSE,167,4.0,14.0,92,0.00,,,0.00,0.0,meteohub,2013-03-12 08:29:00,
2013-03-12 04:34:00,48.4,46.2,30.03,SSE,164,5.0,14.0,92,0.00,,,0.00,0.0,meteohub,2013-03-12 08:34:00,
2013-03-12 04:39:00,48.6,46.6,30.03,South,174,6.0,13.0,93,0.00,,,0.00,0.0,meteohub,2013-03-12 08:39:00,
2013-03-12 04:44:00,48.9,46.8,30.03,SSE,167,4.0,13.0,92,0.00,,,0.00,0.0,meteohub,2013-03-12 08:44:00,
2013-03-12 04:49:00,49.1,46.9,30.02,SSE,153,4.0,13.0,92,0.00,,,0.00,0.0,meteohub,2013-03-12 08:49:00,
2013-03-12 04:54:00,49.1,46.6,30.03,South,180,3.0,13.0,91,0.00,,,0.00,0.0,meteohub,2013-03-12 08:54:00,
2013-03-12 04:59:00,49.3,46.8,30.02,South,180,3.0,10.0,91,0.00,,,0.00,0.0,meteohub,2013-03-12 08:59:00,
2013-03-12 05:04:00,49.3,46.8,30.02,South,170,7.0,8.0,91,0.00,,,0.00,0.0,meteohub,2013-03-12 09:04:00,
2013-03-12 05:09:00,49.3,46.8,30.02,SSE,165,4.0,9.0,91,0.00,,,0.00,0.0,meteohub,2013-03-12 09:09:00,
2013-03-12 05:14:00,49.3,46.4,30.02,SSE,166,2.0,9.0,90,0.00,,,0.00,0.0,meteohub,2013-03-12 09:14:00,
2013-03-12 05:19:00,49.1,46.0,30.02,SSE,161,2.0,9.0,89,0.00,,,0.00,0.0,meteohub,2013-03-12 09:19:00,
2013-03-12 05:25:00,48.9,45.9,30.02,SE,142,1.0,8.0,89,0.00,,,0.00,0.0,meteohub,2013-03-12 09:25:00,
2013-03-12 05:30:00,48.7,45.7,30.01,SSW,196,7.0,9.0,89,0.00,,,0.00,0.0,meteohub,2013-03-12 09:30:00,
2013-03-12 05:35:00,48.7,45.7,30.01,SSE,150,1.0,9.0,89,0.00,,,0.00,0.0,meteohub,2013-03-12 09:35:00,
2013-03-12 05:40:00,48.9,45.9,30.02,SSE,148,8.0,9.0,89,0.00,,,0.00,0.0,meteohub,2013-03-12 09:40:00,
2013-03-12 05:45:00,48.9,45.9,30.02,SSE,167,4.0,11.0,89,0.00,,,0.00,0.0,meteohub,2013-03-12 09:45:00,
2013-03-12 05:50:00,48.7,45.3,30.02,South,169,6.0,11.0,88,0.00,,,0.00,0.0,meteohub,2013-03-12 09:50:00,
2013-03-12 05:55:00,48.7,45.3,30.02,SSE,156,8.0,11.0,88,0.00,,,0.00,0.0,meteohub,2013-03-12 09:55:00,
2013-03-12 06:00:00,48.6,45.1,30.01,SSE,167,4.0,11.0,88,0.00,,,0.00,0.0,meteohub,2013-03-12 10:00:00,
2013-03-12 06:05:00,48.6,45.5,30.01,South,177,2.0,11.0,89,0.00,,,0.00,0.0,meteohub,2013-03-12 10:05:00,
2013-03-12 06:10:00,48.6,45.5,30.01,SSE,157,5.0,8.0,89,0.00,,,0.00,0.0,meteohub,2013-03-12 10:10:00,
2013-03-12 06:15:00,48.4,45.3,30.01,SSE,161,5.0,8.0,89,0.00,,,0.00,0.0,meteohub,2013-03-12 10:15:00,
2013-03-12 06:21:00,48.4,45.3,30.01,SSE,163,2.0,9.0,89,0.00,,,0.00,0.0,meteohub,2013-03-12 10:21:00,
2013-03-12 06:26:00,48.4,45.3,30.01,SE,140,4.0,9.0,89,0.00,,,0.00,0.0,meteohub,2013-03-12 10:26:00,
2013-03-12 06:31:00,48.4,45.3,30.00,SSE,158,0.0,9.0,89,0.00,,,0.00,0.0,meteohub,2013-03-12 10:31:00,
2013-03-12 06:36:00,48.6,45.1,30.00,South,183,3.0,7.0,88,0.00,,,0.00,0.0,meteohub,2013-03-12 10:36:00,
2013-03-12 06:41:00,48.4,45.0,30.00,SSE,155,0.0,7.0,88,0.00,,,0.00,0.0,meteohub,2013-03-12 10:41:00,
2013-03-12 06:47:00,48.2,44.8,30.00,SSE,168,2.0,7.0,88,0.00,,,0.00,0.0,meteohub,2013-03-12 10:47:00,
2013-03-12 06:52:00,48.4,45.3,30.00,SSE,149,2.0,7.0,89,0.00,,,0.00,0.0,meteohub,2013-03-12 10:52:00,
2013-03-12 06:57:00,48.4,45.3,30.00,SSE,148,1.0,7.0,89,0.00,,,0.00,0.0,meteohub,2013-03-12 10:57:00,
2013-03-12 07:02:00,48.4,45.3,30.00,SSE,165,2.0,7.0,89,0.00,,,0.00,0.0,meteohub,2013-03-12 11:02:00,
2013-03-12 07:07:00,48.4,45.3,30.00,SE,132,0.0,7.0,89,0.00,,,0.00,0.0,meteohub,2013-03-12 11:07:00,
2013-03-12 07:12:00,48.4,45.3,30.00,SSE,164,4.0,6.0,89,0.00,,,0.00,0.0,meteohub,2013-03-12 11:12:00,
2013-03-12 07:17:00,48.4,45.3,30.00,South,175,4.0,6.0,89,0.00,,,0.00,0.0,meteohub,2013-03-12 11:17:00,
2013-03-12 07:23:00,48.4,45.3,30.00,SSE,155,4.0,7.0,89,0.00,,,0.00,0.0,meteohub,2013-03-12 11:23:00,
2013-03-12 07:28:00,48.4,45.3,29.99,SSE,162,4.0,7.0,89,0.00,,,0.00,0.0,meteohub,2013-03-12 11:28:00,
2013-03-12 07:33:00,48.2,45.1,29.99,SE,145,1.0,7.0,89,0.00,,,0.00,7.0,meteohub,2013-03-12 11:33:00,
2013-03-12 07:38:00,48.4,45.3,29.99,SSE,167,6.0,6.0,89,0.00,,,0.00,14.0,meteohub,2013-03-12 11:38:00,
2013-03-12 07:43:00,48.4,45.3,29.99,SSE,153,5.0,7.0,89,0.00,,,0.00,14.0,meteohub,2013-03-12 11:43:00,
2013-03-12 07:48:00,48.4,45.3,29.99,South,169,4.0,7.0,89,0.00,,,0.00,16.0,meteohub,2013-03-12 11:48:00,
2013-03-12 07:53:00,48.4,45.3,29.99,South,169,2.0,8.0,89,0.00,,,0.00,23.0,meteohub,2013-03-12 11:53:00,
2013-03-12 07:58:00,48.4,45.3,29.99,SSE,155,1.0,8.0,89,0.00,,,0.00,44.0,meteohub,2013-03-12 11:58:00,
2013-03-12 08:03:00,48.6,45.5,30.00,SSE,161,1.0,8.0,89,0.00,,,0.00,35.0,meteohub,2013-03-12 12:03:00,
2013-03-12 08:09:00,48.6,45.5,30.00,South,173,4.0,8.0,89,0.00,,,0.00,32.0,meteohub,2013-03-12 12:09:00,
2013-03-12 08:13:00,48.7,45.7,30.00,SSE,161,0.0,8.0,89,0.00,,,0.00,32.0,meteohub,2013-03-12 12:13:00,
2013-03-12 08:19:00,48.9,45.9,30.00,SE,126,2.0,7.0,89,0.00,,,0.00,30.0,meteohub,2013-03-12 12:19:00,
2013-03-12 08:24:00,49.1,45.7,30.00,SE,126,0.0,7.0,88,0.00,,,0.00,35.0,meteohub,2013-03-12 12:24:00,
2013-03-12 08:29:00,49.3,45.9,30.00,SE,126,0.0,6.0,88,0.00,,,0.00,40.0,meteohub,2013-03-12 12:29:00,
2013-03-12 08:34:00,49.5,46.0,29.99,SE,126,1.0,6.0,88,0.00,,,0.00,58.0,meteohub,2013-03-12 12:34:00,
2013-03-12 08:39:00,49.6,46.2,29.99,SE,126,0.0,4.0,88,0.00,,,0.00,46.0,meteohub,2013-03-12 12:39:00,
2013-03-12 08:44:00,49.6,46.2,30.00,SSE,151,2.0,5.0,88,0.00,,,0.00,40.0,meteohub,2013-03-12 12:44:00,
2013-03-12 08:49:00,49.6,46.2,30.00,SE,143,2.0,5.0,88,0.00,,,0.00,35.0,meteohub,2013-03-12 12:49:00,
2013-03-12 08:54:00,49.6,45.9,30.00,SE,143,0.0,5.0,87,0.00,,,0.00,33.0,meteohub,2013-03-12 12:54:00,
2013-03-12 09:00:00,49.6,45.9,29.99,SE,132,2.0,4.0,87,0.00,,,0.00,33.0,meteohub,2013-03-12 13:00:00,
2013-03-12 09:05:00,49.6,45.9,29.99,SE,130,4.0,5.0,87,0.00,,,0.00,37.0,meteohub,2013-03-12 13:05:00,
2013-03-12 09:10:00,49.5,45.7,29.99,SSE,152,2.0,5.0,87,0.00,,,0.00,47.0,meteohub,2013-03-12 13:10:00,
2013-03-12 09:15:00,49.5,46.0,29.99,SE,144,0.0,6.0,88,0.00,,,0.00,46.0,meteohub,2013-03-12 13:15:00,
2013-03-12 09:20:00,49.5,45.7,29.99,SE,139,2.0,6.0,87,0.00,,,0.00,37.0,meteohub,2013-03-12 13:20:00,
2013-03-12 09:25:00,49.5,46.0,29.99,SE,142,0.0,6.0,88,0.00,,,0.00,39.0,meteohub,2013-03-12 13:25:00,
2013-03-12 09:31:00,49.3,45.9,29.99,SSE,148,2.0,6.0,88,0.00,,,0.00,33.0,meteohub,2013-03-12 13:31:00,
2013-03-12 09:36:00,49.5,46.0,29.99,SSE,148,2.0,6.0,88,0.00,,,0.00,37.0,meteohub,2013-03-12 13:36:00,
2013-03-12 09:41:00,49.6,46.6,29.98,SSE,148,0.0,6.0,89,0.01,,,0.01,42.0,meteohub,2013-03-12 13:41:00,
2013-03-12 09:46:00,49.6,46.6,29.99,SE,126,4.0,4.0,89,0.01,,,0.01,37.0,meteohub,2013-03-12 13:46:00,
2013-03-12 09:51:00,49.6,46.6,29.98,SE,126,0.0,4.0,89,0.01,,,0.01,33.0,meteohub,2013-03-12 13:51:00,
2013-03-12 09:57:00,49.6,46.6,29.98,SE,126,0.0,4.0,89,0.01,,,0.01,39.0,meteohub,2013-03-12 13:57:00,
2013-03-12 10:02:00,49.6,46.6,29.98,SE,126,0.0,4.0,89,0.01,,,0.01,58.0,meteohub,2013-03-12 14:02:00,
2013-03-12 10:07:00,49.8,46.8,29.97,SE,126,1.0,4.0,89,0.01,,,0.01,49.0,meteohub,2013-03-12 14:07:00,
2013-03-12 10:12:00,49.8,46.9,29.97,SE,127,1.0,5.0,90,0.01,,,0.01,49.0,meteohub,2013-03-12 14:12:00,
2013-03-12 10:17:00,50.2,47.1,29.97,SE,127,1.0,5.0,89,0.01,,,0.01,58.0,meteohub,2013-03-12 14:17:00,
2013-03-12 10:22:00,50.2,47.1,29.97,SE,127,0.0,5.0,89,0.01,,,0.01,76.0,meteohub,2013-03-12 14:22:00,
2013-03-12 10:27:00,50.4,47.3,29.97,South,171,5.0,5.0,89,0.01,,,0.01,56.0,meteohub,2013-03-12 14:27:00,
2013-03-12 10:32:00,50.7,47.7,29.97,SE,138,2.0,9.0,89,0.01,,,0.01,54.0,meteohub,2013-03-12 14:32:00,
2013-03-12 10:37:00,50.7,47.7,29.97,SSE,165,1.0,9.0,89,0.01,,,0.01,65.0,meteohub,2013-03-12 14:37:00,
2013-03-12 10:42:00,50.7,47.3,29.97,South,183,3.0,9.0,88,0.00,,,0.01,56.0,meteohub,2013-03-12 14:42:00,
2013-03-12 10:47:00,50.5,47.5,29.97,SSE,166,7.0,9.0,89,0.00,,,0.01,65.0,meteohub,2013-03-12 14:47:00,
2013-03-12 10:52:00,50.4,47.3,29.96,South,188,3.0,10.0,89,0.00,,,0.01,63.0,meteohub,2013-03-12 14:52:00,
2013-03-12 10:57:00,50.5,47.7,29.96,South,178,5.0,10.0,90,0.01,,,0.02,70.0,meteohub,2013-03-12 14:57:00,
2013-03-12 11:02:00,50.7,47.8,29.96,SSW,196,7.0,10.0,90,0.02,,,0.02,49.0,meteohub,2013-03-12 15:02:00,
2013-03-12 11:08:00,50.9,48.4,29.96,SSE,167,4.0,10.0,91,0.02,,,0.03,47.0,meteohub,2013-03-12 15:08:00,
2013-03-12 11:13:00,51.1,48.6,29.96,SSE,165,5.0,10.0,91,0.03,,,0.04,40.0,meteohub,2013-03-12 15:13:00,
2013-03-12 11:18:00,50.7,48.2,29.95,South,171,1.0,9.0,91,0.03,,,0.04,51.0,meteohub,2013-03-12 15:18:00,
2013-03-12 11:23:00,50.4,47.8,29.95,SSE,163,5.0,10.0,91,0.04,,,0.05,40.0,meteohub,2013-03-12 15:23:00,
2013-03-12 11:28:00,50.2,47.7,29.95,South,171,5.0,10.0,91,0.05,,,0.06,49.0,meteohub,2013-03-12 15:28:00,
2013-03-12 11:33:00,49.8,47.3,29.94,SSE,154,4.0,9.0,91,0.05,,,0.06,46.0,meteohub,2013-03-12 15:33:00,
2013-03-12 11:38:00,49.8,47.7,29.94,SSE,153,8.0,9.0,92,0.06,,,0.07,42.0,meteohub,2013-03-12 15:38:00,
2013-03-12 11:43:00,49.8,47.7,29.94,SSE,158,6.0,11.0,92,0.06,,,0.07,42.0,meteohub,2013-03-12 15:43:00,
2013-03-12 11:48:00,49.8,47.7,29.94,SSE,165,4.0,11.0,92,0.06,,,0.07,51.0,meteohub,2013-03-12 15:48:00,
2013-03-12 11:53:00,49.6,47.5,29.94,SSE,159,2.0,11.0,92,0.06,,,0.08,44.0,meteohub,2013-03-12 15:53:00,
2013-03-12 11:59:00,49.6,47.5,29.93,SE,144,2.0,11.0,92,0.07,,,0.09,53.0,meteohub,2013-03-12 15:59:00,
2013-03-12 12:04:00,49.5,47.3,29.93,SE,131,4.0,8.0,92,0.06,,,0.09,54.0,meteohub,2013-03-12 16:04:00,
2013-03-12 12:09:00,49.1,46.9,29.93,SSE,150,0.0,6.0,92,0.06,,,0.09,58.0,meteohub,2013-03-12 16:09:00,
2013-03-12 12:14:00,49.1,46.9,29.93,South,177,6.0,6.0,92,0.06,,,0.10,67.0,meteohub,2013-03-12 16:14:00,
2013-03-12 12:19:00,49.3,47.3,29.92,South,169,1.0,6.0,93,0.05,,,0.10,46.0,meteohub,2013-03-12 16:19:00,
2013-03-12 12:24:00,49.5,47.5,29.92,South,174,5.0,13.0,93,0.05,,,0.11,39.0,meteohub,2013-03-12 16:24:00,
2013-03-12 12:29:00,49.5,47.5,29.92,SSE,149,2.0,13.0,93,0.05,,,0.11,42.0,meteohub,2013-03-12 16:29:00,
2013-03-12 12:34:00,49.6,47.7,29.92,South,171,4.0,11.0,93,0.06,,,0.12,39.0,meteohub,2013-03-12 16:34:00,
2013-03-12 12:39:00,49.5,47.5,29.91,South,170,4.0,13.0,93,0.06,,,0.13,49.0,meteohub,2013-03-12 16:39:00,
2013-03-12 12:44:00,49.3,47.3,29.91,East,86,3.0,13.0,93,0.07,,,0.13,54.0,meteohub,2013-03-12 16:44:00,
2013-03-12 12:50:00,48.7,46.8,29.91,SSE,163,4.0,13.0,93,0.06,,,0.14,56.0,meteohub,2013-03-12 16:50:00,
2013-03-12 12:55:00,48.4,46.4,29.91,South,181,3.0,11.0,93,0.07,,,0.15,56.0,meteohub,2013-03-12 16:55:00,
2013-03-12 13:00:00,48.4,46.4,29.91,SSE,160,5.0,9.0,93,0.07,,,0.16,46.0,meteohub,2013-03-12 17:00:00,
2013-03-12 13:05:00,48.6,46.9,29.90,SSE,148,4.0,13.0,94,0.06,,,0.16,60.0,meteohub,2013-03-12 17:05:00,
2013-03-12 13:10:00,48.7,47.1,29.90,SSE,165,6.0,13.0,94,0.06,,,0.16,54.0,meteohub,2013-03-12 17:10:00,
2013-03-12 13:15:00,48.9,47.3,29.90,South,180,5.0,13.0,94,0.07,,,0.17,54.0,meteohub,2013-03-12 17:15:00,
2013-03-12 13:20:00,49.3,47.7,29.89,SSW,194,6.0,14.0,94,0.06,,,0.17,56.0,meteohub,2013-03-12 17:20:00,
2013-03-12 13:25:00,49.5,47.8,29.89,SSE,162,4.0,14.0,94,0.06,,,0.17,56.0,meteohub,2013-03-12 17:25:00,
2013-03-12 13:30:00,49.3,47.7,29.88,South,183,6.0,12.0,94,0.06,,,0.18,60.0,meteohub,2013-03-12 17:30:00,
2013-03-12 13:36:00,48.9,47.3,29.88,South,180,5.0,15.0,94,0.05,,,0.18,51.0,meteohub,2013-03-12 17:36:00,
2013-03-12 13:41:00,48.9,47.3,29.88,South,179,2.0,15.0,94,0.05,,,0.19,47.0,meteohub,2013-03-12 17:41:00,
2013-03-12 13:46:00,48.7,47.1,29.88,SSE,159,6.0,15.0,94,0.04,,,0.19,42.0,meteohub,2013-03-12 17:46:00,
2013-03-12 13:51:00,48.9,47.3,29.88,SSE,148,10.0,13.0,94,0.04,,,0.19,40.0,meteohub,2013-03-12 17:51:00,
2013-03-12 13:57:00,48.9,47.3,29.88,SSE,158,6.0,16.0,94,0.05,,,0.20,42.0,meteohub,2013-03-12 17:57:00,
2013-03-12 14:02:00,48.9,47.3,29.87,ESE,122,12.0,16.0,94,0.04,,,0.20,37.0,meteohub,2013-03-12 18:02:00,
2013-03-12 14:07:00,48.9,47.3,29.87,SSE,162,10.0,16.0,94,0.05,,,0.21,51.0,meteohub,2013-03-12 18:07:00,
2013-03-12 14:12:00,49.3,47.8,29.86,SE,137,14.0,15.0,95,0.04,,,0.21,51.0,meteohub,2013-03-12 18:12:00,
2013-03-12 14:17:00,49.3,47.8,29.86,SE,126,9.0,18.0,95,0.05,,,0.22,47.0,meteohub,2013-03-12 18:17:00,
2013-03-12 14:22:00,49.1,47.5,29.86,SE,134,18.0,18.0,94,0.06,,,0.22,44.0,meteohub,2013-03-12 18:22:00,
2013-03-12 14:27:00,48.9,47.3,29.85,SE,145,7.0,18.0,94,0.06,,,0.23,51.0,meteohub,2013-03-12 18:27:00,
2013-03-12 14:32:00,48.7,47.1,29.84,SSE,164,7.0,18.0,94,0.06,,,0.24,32.0,meteohub,2013-03-12 18:32:00,
2013-03-12 14:37:00,48.4,46.8,29.84,SSE,160,9.0,18.0,94,0.06,,,0.24,42.0,meteohub,2013-03-12 18:37:00,
2013-03-12 14:42:00,48.4,46.8,29.83,South,173,5.0,15.0,94,0.06,,,0.25,44.0,meteohub,2013-03-12 18:42:00,
2013-03-12 14:48:00,48.4,46.9,29.83,SSE,155,8.0,15.0,95,0.06,,,0.25,39.0,meteohub,2013-03-12 18:48:00,
2013-03-12 14:53:00,48.4,46.9,29.83,SSE,162,8.0,13.0,95,0.05,,,0.25,30.0,meteohub,2013-03-12 18:53:00,
2013-03-12 14:58:00,48.4,46.9,29.83,South,174,10.0,13.0,95,0.06,,,0.26,40.0,meteohub,2013-03-12 18:58:00,
2013-03-12 15:03:00,48.4,46.9,29.82,South,176,7.0,13.0,95,0.06,,,0.27,40.0,meteohub,2013-03-12 19:03:00,
2013-03-12 15:08:00,48.4,46.9,29.82,SSE,153,10.0,11.0,95,0.06,,,0.27,26.0,meteohub,2013-03-12 19:08:00,
2013-03-12 15:13:00,48.4,46.9,29.82,SE,130,9.0,11.0,95,0.05,,,0.27,32.0,meteohub,2013-03-12 19:13:00,
2013-03-12 15:18:00,48.4,46.9,29.82,South,169,7.0,12.0,95,0.06,,,0.28,19.0,meteohub,2013-03-12 19:18:00,
2013-03-12 15:23:00,48.4,46.9,29.81,SSE,165,7.0,12.0,95,0.05,,,0.28,21.0,meteohub,2013-03-12 19:23:00,
2013-03-12 15:28:00,48.2,46.8,29.81,SSE,153,4.0,13.0,95,0.06,,,0.29,21.0,meteohub,2013-03-12 19:28:00,
2013-03-12 15:34:00,48.0,46.6,29.80,South,169,5.0,13.0,95,0.07,,,0.31,25.0,meteohub,2013-03-12 19:34:00,
2013-03-12 15:39:00,47.8,46.4,29.80,SSE,147,10.0,13.0,95,0.07,,,0.31,19.0,meteohub,2013-03-12 19:39:00,
2013-03-12 15:44:00,47.8,46.4,29.79,SSE,159,9.0,12.0,95,0.07,,,0.32,19.0,meteohub,2013-03-12 19:44:00,
2013-03-12 15:49:00,48.0,46.6,29.79,South,180,4.0,15.0,95,0.08,,,0.33,16.0,meteohub,2013-03-12 19:49:00,
2013-03-12 15:54:00,48.0,46.6,29.78,SE,134,8.0,15.0,95,0.08,,,0.33,16.0,meteohub,2013-03-12 19:54:00,
2013-03-12 15:59:00,48.4,46.9,29.78,SE,140,6.0,17.0,95,0.09,,,0.35,18.0,meteohub,2013-03-12 19:59:00,
2013-03-12 16:04:00,48.6,47.5,29.77,SE,144,6.0,19.0,96,0.09,,,0.36,21.0,meteohub,2013-03-12 20:04:00,
2013-03-12 16:09:00,48.7,47.7,29.77,SE,132,11.0,19.0,96,0.09,,,0.36,16.0,meteohub,2013-03-12 20:09:00,
2013-03-12 16:15:00,49.1,48.0,29.76,SE,144,8.0,19.0,96,0.09,,,0.37,21.0,meteohub,2013-03-12 20:15:00,
2013-03-12 16:20:00,49.5,48.4,29.76,SSE,163,9.0,17.0,96,0.11,,,0.39,21.0,meteohub,2013-03-12 20:20:00,
2013-03-12 16:25:00,49.1,47.7,29.76,South,179,9.0,17.0,95,0.10,,,0.40,18.0,meteohub,2013-03-12 20:25:00,
2013-03-12 16:30:00,48.7,47.3,29.75,South,191,7.0,17.0,95,0.09,,,0.40,18.0,meteohub,2013-03-12 20:30:00,
2013-03-12 16:35:00,48.6,47.1,29.75,SSE,167,12.0,17.0,95,0.08,,,0.40,18.0,meteohub,2013-03-12 20:35:00,
2013-03-12 16:40:00,48.4,46.9,29.75,East,81,15.0,17.0,95,0.10,,,0.42,9.0,meteohub,2013-03-12 20:40:00,
2013-03-12 16:45:00,48.6,47.5,29.75,South,170,5.0,17.0,96,0.11,,,0.43,11.0,meteohub,2013-03-12 20:45:00,
2013-03-12 16:50:00,48.6,47.5,29.74,South,169,7.0,16.0,96,0.11,,,0.45,11.0,meteohub,2013-03-12 20:50:00,
2013-03-12 16:55:00,48.6,47.5,29.74,SSE,161,4.0,17.0,96,0.12,,,0.47,9.0,meteohub,2013-03-12 20:55:00,
2013-03-12 17:00:00,48.7,47.7,29.73,SE,134,8.0,17.0,96,0.11,,,0.47,7.0,meteohub,2013-03-12 21:00:00,
2013-03-12 17:06:00,48.7,47.7,29.72,SE,144,5.0,18.0,96,0.11,,,0.48,9.0,meteohub,2013-03-12 21:06:00,
2013-03-12 17:11:00,48.9,47.8,29.71,South,178,13.0,18.0,96,0.11,,,0.49,9.0,meteohub,2013-03-12 21:11:00,
2013-03-12 17:16:00,49.1,48.0,29.71,SSE,162,8.0,20.0,96,0.10,,,0.49,7.0,meteohub,2013-03-12 21:16:00,
2013-03-12 17:21:00,49.3,48.2,29.71,SSE,158,13.0,21.0,96,0.12,,,0.51,7.0,meteohub,2013-03-12 21:21:00,
2013-03-12 17:26:00,49.5,48.4,29.70,SSE,159,9.0,22.0,96,0.13,,,0.53,7.0,meteohub,2013-03-12 21:26:00,
2013-03-12 17:32:00,49.5,48.4,29.70,SE,134,12.0,22.0,96,0.13,,,0.53,12.0,meteohub,2013-03-12 21:32:00,
2013-03-12 17:37:00,49.5,48.4,29.70,SE,141,8.0,23.0,96,0.16,,,0.57,14.0,meteohub,2013-03-12 21:37:00,
2013-03-12 17:42:00,49.6,48.6,29.70,SE,143,6.0,23.0,96,0.18,,,0.60,12.0,meteohub,2013-03-12 21:42:00,
2013-03-12 17:47:00,49.8,48.7,29.69,SSE,147,13.0,23.0,96,0.17,,,0.61,12.0,meteohub,2013-03-12 21:47:00,
2013-03-12 17:52:00,49.8,48.7,29.70,SSE,156,11.0,18.0,96,0.19,,,0.64,12.0,meteohub,2013-03-12 21:52:00,
2013-03-12 17:57:00,50.2,49.1,29.69,SSE,163,12.0,18.0,96,0.18,,,0.65,9.0,meteohub,2013-03-12 21:57:00,
2013-03-12 18:02:00,50.4,49.3,29.70,South,169,10.0,19.0,96,0.18,,,0.65,11.0,meteohub,2013-03-12 22:02:00,
2013-03-12 18:07:00,50.7,49.6,29.70,SSE,148,8.0,24.0,96,0.18,,,0.66,14.0,meteohub,2013-03-12 22:07:00,
2013-03-12 18:13:00,51.4,50.4,29.70,South,182,11.0,26.0,96,0.17,,,0.66,18.0,meteohub,2013-03-12 22:13:00,
2013-03-12 18:18:00,52.0,51.1,29.71,South,170,8.0,26.0,97,0.16,,,0.66,12.0,meteohub,2013-03-12 22:18:00,
2013-03-12 18:23:00,52.2,51.1,29.72,ESE,122,11.0,21.0,96,0.14,,,0.66,5.0,meteohub,2013-03-12 22:23:00,
2013-03-12 18:28:00,52.3,51.3,29.72,SSW,200,11.0,21.0,96,0.14,,,0.67,5.0,meteohub,2013-03-12 22:28:00,
2013-03-12 18:33:00,52.3,51.3,29.72,South,189,5.0,25.0,96,0.12,,,0.67,5.0,meteohub,2013-03-12 22:33:00,
2013-03-12 18:38:00,52.2,51.1,29.72,South,181,6.0,25.0,96,0.09,,,0.67,7.0,meteohub,2013-03-12 22:38:00,
2013-03-12 18:43:00,52.2,51.1,29.72,SW,214,7.0,25.0,96,0.06,,,0.67,5.0,meteohub,2013-03-12 22:43:00,
2013-03-12 18:48:00,51.4,50.4,29.72,SSW,195,12.0,25.0,96,0.04,,,0.67,0.0,meteohub,2013-03-12 22:48:00,
2013-03-12 18:53:00,51.3,50.2,29.72,South,178,13.0,27.0,96,0.03,,,0.67,0.0,meteohub,2013-03-12 22:53:00,
2013-03-12 18:59:00,51.3,50.2,29.72,South,190,5.0,27.0,96,0.02,,,0.67,0.0,meteohub,2013-03-12 22:59:00,
2013-03-12 19:04:00,51.3,50.2,29.73,South,179,8.0,33.0,96,0.02,,,0.67,0.0,meteohub,2013-03-12 23:04:00,
2013-03-12 19:09:00,51.1,50.0,29.73,South,174,17.0,33.0,96,0.01,,,0.67,0.0,meteohub,2013-03-12 23:09:00,
2013-03-12 19:14:00,51.1,50.0,29.73,SW,236,10.0,33.0,96,0.01,,,0.67,0.0,meteohub,2013-03-12 23:14:00,
2013-03-12 19:19:00,50.9,49.8,29.73,South,175,7.0,24.0,96,0.01,,,0.67,0.0,meteohub,2013-03-12 23:19:00,
2013-03-12 19:24:00,50.7,49.6,29.73,South,188,12.0,24.0,96,0.01,,,0.67,0.0,meteohub,2013-03-12 23:24:00,
2013-03-12 19:29:00,50.7,49.6,29.73,SSW,208,10.0,24.0,96,0.00,,,0.67,0.0,meteohub,2013-03-12 23:29:00,
2013-03-12 19:34:00,50.7,49.6,29.72,SSW,211,10.0,25.0,96,0.00,,,0.67,0.0,meteohub,2013-03-12 23:34:00,
2013-03-12 19:39:00,50.9,49.8,29.73,SSW,205,11.0,29.0,96,0.00,,,0.67,0.0,meteohub,2013-03-12 23:39:00,
2013-03-12 19:44:00,50.7,49.6,29.73,SSW,197,6.0,29.0,96,0.00,,,0.67,0.0,meteohub,2013-03-12 23:44:00,
2013-03-12 19:50:00,50.5,49.5,29.73,South,183,5.0,21.0,96,0.00,,,0.67,0.0,meteohub,2013-03-12 23:50:00,
2013-03-12 19:55:00,50.4,49.3,29.73,South,191,6.0,21.0,96,0.00,,,0.67,0.0,meteohub,2013-03-12 23:55:00,
2013-03-12 20:00:00,50.0,48.9,29.73,South,171,12.0,26.0,96,0.00,,,0.67,0.0,meteohub,2013-03-13 00:00:00,
2013-03-12 20:05:00,49.6,48.6,29.74,SSW,195,10.0,26.0,96,0.00,,,0.00,0.0,meteohub,2013-03-13 00:05:00,
2013-03-12 20:10:00,49.3,48.2,29.74,SSW,192,7.0,17.0,96,0.00,,,0.00,0.0,meteohub,2013-03-13 00:10:00,
2013-03-12 20:15:00,48.7,47.7,29.74,SSE,165,6.0,15.0,96,0.00,,,0.00,0.0,meteohub,2013-03-13 00:15:00,
2013-03-12 20:20:00,48.6,47.5,29.74,SSW,211,11.0,15.0,96,0.00,,,0.00,0.0,meteohub,2013-03-13 00:20:00,
2013-03-12 20:25:00,48.6,47.5,29.74,SW,228,7.0,15.0,96,0.00,,,0.00,0.0,meteohub,2013-03-13 00:25:00,
2013-03-12 20:30:00,48.4,47.3,29.74,SW,233,8.0,15.0,96,0.00,,,0.00,0.0,meteohub,2013-03-13 00:30:00,
2013-03-12 20:35:00,48.6,47.5,29.74,South,178,6.0,13.0,96,0.00,,,0.00,0.0,meteohub,2013-03-13 00:35:00,
2013-03-12 20:41:00,48.9,48.0,29.74,SW,225,5.0,16.0,97,0.00,,,0.00,0.0,meteohub,2013-03-13 00:41:00,
2013-03-12 20:46:00,48.9,48.0,29.74,SW,225,5.0,16.0,97,0.00,,,0.00,0.0,meteohub,2013-03-13 00:46:00,
2013-03-12 20:51:00,48.9,48.0,29.74,SW,219,8.0,16.0,97,0.00,,,0.00,0.0,meteohub,2013-03-13 00:51:00,
2013-03-12 20:56:00,48.9,48.0,29.75,SW,218,7.0,14.0,97,0.00,,,0.00,0.0,meteohub,2013-03-13 00:56:00,
2013-03-12 21:01:00,48.9,48.0,29.74,WNW,300,4.0,13.0,97,0.00,,,0.00,0.0,meteohub,2013-03-13 01:01:00,
2013-03-12 21:06:00,48.9,48.0,29.73,WSW,245,3.0,12.0,97,0.00,,,0.00,0.0,meteohub,2013-03-13 01:06:00,
2013-03-12 21:12:00,48.7,47.8,29.74,West,268,5.0,12.0,97,0.00,,,0.00,0.0,meteohub,2013-03-13 01:12:00,
2013-03-12 21:17:00,48.7,47.7,29.74,WNW,283,7.0,14.0,96,0.00,,,0.00,0.0,meteohub,2013-03-13 01:17:00,
2013-03-12 21:21:00,48.6,47.5,29.74,West,273,4.0,14.0,96,0.00,,,0.00,0.0,meteohub,2013-03-13 01:21:00,
2013-03-12 21:27:00,48.7,47.8,29.73,West,273,0.0,14.0,97,0.00,,,0.00,0.0,meteohub,2013-03-13 01:27:00,
2013-03-12 21:32:00,48.7,47.8,29.74,West,269,3.0,9.0,97,0.00,,,0.00,0.0,meteohub,2013-03-13 01:32:00,
2013-03-12 21:37:00,48.7,47.8,29.73,West,269,0.0,6.0,97,0.00,,,0.00,0.0,meteohub,2013-03-13 01:37:00,
2013-03-12 21:42:00,48.9,48.0,29.74,West,269,0.0,5.0,97,0.00,,,0.00,0.0,meteohub,2013-03-13 01:42:00,
2013-03-12 21:47:00,48.9,48.0,29.74,West,269,0.0,5.0,97,0.00,,,0.00,0.0,meteohub,2013-03-13 01:47:00,
2013-03-12 21:52:00,48.9,48.0,29.75,West,269,0.0,2.0,97,0.00,,,0.00,0.0,meteohub,2013-03-13 01:52:00,
2013-03-12 21:57:00,48.7,47.8,29.75,West,269,0.0,3.0,97,0.00,,,0.00,0.0,meteohub,2013-03-13 01:57:00,
2013-03-12 22:03:00,48.9,48.0,29.75,West,269,0.0,3.0,97,0.00,,,0.00,0.0,meteohub,2013-03-13 02:03:00,
2013-03-12 22:08:00,48.9,48.0,29.75,West,269,0.0,3.0,97,0.00,,,0.00,0.0,meteohub,2013-03-13 02:08:00,
2013-03-12 22:13:00,48.9,48.0,29.75,West,269,0.0,1.0,97,0.00,,,0.00,0.0,meteohub,2013-03-13 02:13:00,
2013-03-12 22:18:00,48.9,48.0,29.74,West,269,0.0,0.0,97,0.00,,,0.00,0.0,meteohub,2013-03-13 02:18:00,
2013-03-12 22:23:00,48.9,48.0,29.74,West,269,0.0,0.0,97,0.00,,,0.00,0.0,meteohub,2013-03-13 02:23:00,
2013-03-12 22:28:00,48.9,48.0,29.74,West,269,1.0,3.0,97,0.00,,,0.00,0.0,meteohub,2013-03-13 02:28:00,
2013-03-12 22:33:00,48.9,48.0,29.75,West,270,0.0,4.0,97,0.00,,,0.00,0.0,meteohub,2013-03-13 02:33:00,
2013-03-12 22:38:00,48.9,48.0,29.75,West,267,0.0,4.0,97,0.00,,,0.00,0.0,meteohub,2013-03-13 02:38:00,
2013-03-12 22:44:00,49.1,48.2,29.75,NNE,19,4.0,4.0,97,0.00,,,0.00,0.0,meteohub,2013-03-13 02:44:00,
2013-03-12 22:49:00,49.3,48.4,29.76,NW,321,5.0,5.0,97,0.00,,,0.00,0.0,meteohub,2013-03-13 02:49:00,
2013-03-12 22:54:00,49.1,48.2,29.76,NNE,12,14.0,14.0,97,0.00,,,0.00,0.0,meteohub,2013-03-13 02:54:00,
2013-03-12 22:59:00,48.0,46.9,29.77,NNE,13,7.0,18.0,96,0.00,,,0.00,0.0,meteohub,2013-03-13 02:59:00,
2013-03-12 23:04:00,47.1,46.0,29.77,North,0,8.0,18.0,96,0.00,,,0.00,0.0,meteohub,2013-03-13 03:04:00,
2013-03-12 23:09:00,46.6,45.5,29.76,North,10,9.0,18.0,96,0.00,,,0.00,0.0,meteohub,2013-03-13 03:09:00,
2013-03-12 23:14:00,46.0,45.0,29.77,North,5,11.0,18.0,96,0.00,,,0.00,0.0,meteohub,2013-03-13 03:14:00,
2013-03-12 23:19:00,45.7,44.6,29.77,North,5,9.0,16.0,96,0.00,,,0.00,0.0,meteohub,2013-03-13 03:19:00,
2013-03-12 23:24:00,45.1,43.9,29.77,NNW,328,14.0,16.0,95,0.00,,,0.00,0.0,meteohub,2013-03-13 03:24:00,
2013-03-12 23:29:00,44.8,43.5,29.77,NW,322,11.0,24.0,95,0.00,,,0.00,0.0,meteohub,2013-03-13 03:29:00,
2013-03-12 23:34:00,44.4,43.2,29.76,NW,306,6.0,24.0,95,0.00,,,0.00,0.0,meteohub,2013-03-13 03:34:00,
2013-03-12 23:39:00,44.2,43.0,29.76,NNW,334,12.0,24.0,95,0.00,,,0.00,0.0,meteohub,2013-03-13 03:39:00,
2013-03-12 23:45:00,44.1,42.8,29.77,NNW,331,9.0,22.0,95,0.00,,,0.00,0.0,meteohub,2013-03-13 03:45:00,
2013-03-12 23:50:00,44.1,42.8,29.78,WNW,300,12.0,19.0,95,0.00,,,0.00,0.0,meteohub,2013-03-13 03:50:00,
2013-03-12 23:55:00,44.1,42.8,29.78,NNW,342,7.0,18.0,95,0.00,,,0.00,0.0,meteohub,2013-03-13 03:55:00,